sensor_id;sensor_type;location;lat;lon;timestamp;temperature;humidity
53904;DHT22;39812;52.430;16.936;2023-01-30T00:00:31;0.20;99.90
53904;DHT22;39812;52.430;16.936;2023-01-30T00:02:58;0.30;99.90
53904;DHT22;39812;52.430;16.936;2023-01-30T00:05:24;0.20;99.90
53904;DHT22;39812;52.430;16.936;2023-01-30T00:07:50;0.30;99.90
53904;DHT22;39812;52.430;16.936;2023-01-30T00:10:16;0.30;99.90
53904;DHT22;39812;52.430;16.936;2023-01-30T00:12:41;0.20;99.90
53904;DHT22;39812;52.430;16.936;2023-01-30T00:15:07;0.20;99.90
53904;DHT22;39812;52.430;16.936;2023-01-30T00:17:33;0.20;99.90
53904;DHT22;39812;52.430;16.936;2023-01-30T00:19:59;0.20;99.90
53904;DHT22;39812;52.430;16.936;2023-01-30T00:22:25;0.20;99.90
53904;DHT22;39812;52.430;16.936;2023-01-30T00:24:51;0.20;99.90
53904;DHT22;39812;52.430;16.936;2023-01-30T00:27:16;0.20;99.90
53904;DHT22;39812;52.430;16.936;2023-01-30T00:29:42;0.20;99.90
53904;DHT22;39812;52.430;16.936;2023-01-30T00:32:08;0.20;99.90
53904;DHT22;39812;52.430;16.936;2023-01-30T00:34:34;0.20;99.90
53904;DHT22;39812;52.430;16.936;2023-01-30T00:37:00;0.10;99.90
53904;DHT22;39812;52.430;16.936;2023-01-30T00:39:25;0.10;99.90
53904;DHT22;39812;52.430;16.936;2023-01-30T00:41:51;0.10;99.90
53904;DHT22;39812;52.430;16.936;2023-01-30T00:44:35;0.10;99.90
53904;DHT22;39812;52.430;16.936;2023-01-30T00:47:20;0.10;99.90
53904;DHT22;39812;52.430;16.936;2023-01-30T00:49:46;0.10;99.90
53904;DHT22;39812;52.430;16.936;2023-01-30T00:52:11;0.10;99.90
53904;DHT22;39812;52.430;16.936;2023-01-30T00:54:37;0.10;99.90
53904;DHT22;39812;52.430;16.936;2023-01-30T00:57:03;0.10;99.90
53904;DHT22;39812;52.430;16.936;2023-01-30T00:59:29;0.10;99.90
53904;DHT22;39812;52.430;16.936;2023-01-30T01:01:54;0.10;99.90
53904;DHT22;39812;52.430;16.936;2023-01-30T01:04:20;0.10;99.90
53904;DHT22;39812;52.430;16.936;2023-01-30T01:06:46;0.10;99.90
53904;DHT22;39812;52.430;16.936;2023-01-30T01:09:12;0.10;99.90
53904;DHT22;39812;52.430;16.936;2023-01-30T01:11:37;0.20;99.90
53904;DHT22;39812;52.430;16.936;2023-01-30T01:14:04;0.20;99.90
53904;DHT22;39812;52.430;16.936;2023-01-30T01:16:33;0.20;99.90
53904;DHT22;39812;52.430;16.936;2023-01-30T01:19:00;0.20;99.90
53904;DHT22;39812;52.430;16.936;2023-01-30T01:21:26;0.20;99.90
53904;DHT22;39812;52.430;16.936;2023-01-30T01:23:53;0.30;99.90
53904;DHT22;39812;52.430;16.936;2023-01-30T01:26:19;0.30;99.90
53904;DHT22;39812;52.430;16.936;2023-01-30T01:28:45;0.30;99.90
53904;DHT22;39812;52.430;16.936;2023-01-30T01:31:12;0.30;99.90
53904;DHT22;39812;52.430;16.936;2023-01-30T01:33:39;0.30;99.90
53904;DHT22;39812;52.430;16.936;2023-01-30T01:36:05;0.30;99.90
53904;DHT22;39812;52.430;16.936;2023-01-30T01:38:31;0.30;99.90
53904;DHT22;39812;52.430;16.936;2023-01-30T01:40:57;0.30;99.90
53904;DHT22;39812;52.430;16.936;2023-01-30T01:46:30;0.30;99.90
53904;DHT22;39812;52.430;16.936;2023-01-30T01:48:59;0.40;99.90
53904;DHT22;39812;52.430;16.936;2023-01-30T01:54:02;0.40;99.90
53904;DHT22;39812;52.430;16.936;2023-01-30T01:56:32;0.30;99.90
53904;DHT22;39812;52.430;16.936;2023-01-30T01:59:07;0.40;99.90
53904;DHT22;39812;52.430;16.936;2023-01-30T02:01:34;0.40;99.90
53904;DHT22;39812;52.430;16.936;2023-01-30T02:04:03;0.40;99.90
53904;DHT22;39812;52.430;16.936;2023-01-30T02:06:31;0.30;99.90
53904;DHT22;39812;52.430;16.936;2023-01-30T02:09:04;0.40;99.90
53904;DHT22;39812;52.430;16.936;2023-01-30T02:11:40;0.30;99.90
53904;DHT22;39812;52.430;16.936;2023-01-30T02:14:06;0.40;99.90
53904;DHT22;39812;52.430;16.936;2023-01-30T02:16:34;0.40;99.90
53904;DHT22;39812;52.430;16.936;2023-01-30T02:19:00;0.40;99.90
53904;DHT22;39812;52.430;16.936;2023-01-30T02:21:42;0.40;99.90
53904;DHT22;39812;52.430;16.936;2023-01-30T02:32:40;0.30;99.90
53904;DHT22;39812;52.430;16.936;2023-01-30T02:35:25;0.30;99.90
53904;DHT22;39812;52.430;16.936;2023-01-30T02:38:08;0.30;99.90
53904;DHT22;39812;52.430;16.936;2023-01-30T02:46:35;0.20;99.90
53904;DHT22;39812;52.430;16.936;2023-01-30T02:49:10;0.30;99.90
53904;DHT22;39812;52.430;16.936;2023-01-30T02:51:40;0.20;99.90
53904;DHT22;39812;52.430;16.936;2023-01-30T02:54:09;0.30;99.90
53904;DHT22;39812;52.430;16.936;2023-01-30T02:56:52;0.20;99.90
53904;DHT22;39812;52.430;16.936;2023-01-30T02:59:32;0.20;99.90
53904;DHT22;39812;52.430;16.936;2023-01-30T03:02:30;0.20;99.90
53904;DHT22;39812;52.430;16.936;2023-01-30T03:10:48;0.20;99.90
53904;DHT22;39812;52.430;16.936;2023-01-30T03:13:23;0.30;99.90
53904;DHT22;39812;52.430;16.936;2023-01-30T03:18:56;0.20;99.90
53904;DHT22;39812;52.430;16.936;2023-01-30T03:21:24;0.20;99.90
53904;DHT22;39812;52.430;16.936;2023-01-30T03:23:50;0.20;99.90
53904;DHT22;39812;52.430;16.936;2023-01-30T03:26:25;0.20;99.90
53904;DHT22;39812;52.430;16.936;2023-01-30T03:28:52;0.20;99.90
53904;DHT22;39812;52.430;16.936;2023-01-30T03:31:18;0.20;99.90
53904;DHT22;39812;52.430;16.936;2023-01-30T03:33:43;0.20;99.90
53904;DHT22;39812;52.430;16.936;2023-01-30T03:36:09;0.20;99.90
53904;DHT22;39812;52.430;16.936;2023-01-30T03:38:35;0.10;99.90
53904;DHT22;39812;52.430;16.936;2023-01-30T03:41:02;0.20;99.90
53904;DHT22;39812;52.430;16.936;2023-01-30T03:43:28;0.20;99.90
53904;DHT22;39812;52.430;16.936;2023-01-30T03:45:54;0.20;99.90
53904;DHT22;39812;52.430;16.936;2023-01-30T03:48:19;0.20;99.90
53904;DHT22;39812;52.430;16.936;2023-01-30T03:50:45;0.20;99.90
53904;DHT22;39812;52.430;16.936;2023-01-30T03:53:10;0.20;99.90
53904;DHT22;39812;52.430;16.936;2023-01-30T03:55:36;0.20;99.90
53904;DHT22;39812;52.430;16.936;2023-01-30T03:58:02;0.20;99.90
53904;DHT22;39812;52.430;16.936;2023-01-30T04:00:28;0.20;99.90
53904;DHT22;39812;52.430;16.936;2023-01-30T04:02:53;0.30;99.90
53904;DHT22;39812;52.430;16.936;2023-01-30T04:05:21;0.30;99.90
53904;DHT22;39812;52.430;16.936;2023-01-30T04:07:47;0.20;99.90
53904;DHT22;39812;52.430;16.936;2023-01-30T04:10:13;0.00;99.90
53904;DHT22;39812;52.430;16.936;2023-01-30T04:12:40;0.00;99.90
53904;DHT22;39812;52.430;16.936;2023-01-30T04:15:07;0.00;99.90
53904;DHT22;39812;52.430;16.936;2023-01-30T04:17:33;0.00;99.90
53904;DHT22;39812;52.430;16.936;2023-01-30T04:19:59;0.00;99.90
53904;DHT22;39812;52.430;16.936;2023-01-30T04:22:24;0.00;99.90
53904;DHT22;39812;52.430;16.936;2023-01-30T04:24:50;0.00;99.90
53904;DHT22;39812;52.430;16.936;2023-01-30T04:27:16;-0.10;99.90
53904;DHT22;39812;52.430;16.936;2023-01-30T04:29:41;-0.10;99.90
53904;DHT22;39812;52.430;16.936;2023-01-30T04:32:07;-0.20;99.90
53904;DHT22;39812;52.430;16.936;2023-01-30T04:34:33;-0.30;99.90
53904;DHT22;39812;52.430;16.936;2023-01-30T04:36:58;-0.30;99.90
53904;DHT22;39812;52.430;16.936;2023-01-30T04:39:24;-0.30;99.90
53904;DHT22;39812;52.430;16.936;2023-01-30T04:41:50;-0.30;99.90
53904;DHT22;39812;52.430;16.936;2023-01-30T04:44:15;-0.40;99.90
53904;DHT22;39812;52.430;16.936;2023-01-30T04:46:41;-0.30;99.90
53904;DHT22;39812;52.430;16.936;2023-01-30T04:49:09;-0.30;99.90
53904;DHT22;39812;52.430;16.936;2023-01-30T04:51:35;-0.30;99.90
53904;DHT22;39812;52.430;16.936;2023-01-30T04:54:01;-0.40;99.90
53904;DHT22;39812;52.430;16.936;2023-01-30T04:56:27;-0.40;99.90
53904;DHT22;39812;52.430;16.936;2023-01-30T04:58:52;-0.30;99.90
53904;DHT22;39812;52.430;16.936;2023-01-30T05:03:51;-0.40;99.90
53904;DHT22;39812;52.430;16.936;2023-01-30T05:06:17;-0.40;99.90
53904;DHT22;39812;52.430;16.936;2023-01-30T05:08:42;-0.40;99.90
53904;DHT22;39812;52.430;16.936;2023-01-30T05:11:08;-0.40;99.90
53904;DHT22;39812;52.430;16.936;2023-01-30T05:13:34;-0.40;99.90
53904;DHT22;39812;52.430;16.936;2023-01-30T05:15:59;-0.40;99.90
53904;DHT22;39812;52.430;16.936;2023-01-30T05:18:25;-0.40;99.90
53904;DHT22;39812;52.430;16.936;2023-01-30T05:20:51;-0.40;99.90
53904;DHT22;39812;52.430;16.936;2023-01-30T05:23:16;-0.40;99.90
53904;DHT22;39812;52.430;16.936;2023-01-30T05:25:42;-0.40;99.90
53904;DHT22;39812;52.430;16.936;2023-01-30T05:28:07;-0.40;99.90
53904;DHT22;39812;52.430;16.936;2023-01-30T05:30:33;-0.40;99.90
53904;DHT22;39812;52.430;16.936;2023-01-30T05:32:59;-0.40;99.90
53904;DHT22;39812;52.430;16.936;2023-01-30T05:35:24;-0.40;99.90
53904;DHT22;39812;52.430;16.936;2023-01-30T05:37:50;-0.40;99.90
53904;DHT22;39812;52.430;16.936;2023-01-30T05:40:17;-0.40;99.90
53904;DHT22;39812;52.430;16.936;2023-01-30T05:42:42;-0.40;99.90
53904;DHT22;39812;52.430;16.936;2023-01-30T05:45:08;-0.30;99.90
53904;DHT22;39812;52.430;16.936;2023-01-30T05:47:34;-0.40;99.90
53904;DHT22;39812;52.430;16.936;2023-01-30T05:50:00;-0.40;99.90
53904;DHT22;39812;52.430;16.936;2023-01-30T05:52:25;-0.40;99.90
53904;DHT22;39812;52.430;16.936;2023-01-30T05:54:51;-0.40;99.90
53904;DHT22;39812;52.430;16.936;2023-01-30T05:57:16;-0.30;99.90
53904;DHT22;39812;52.430;16.936;2023-01-30T05:59:42;-0.30;99.90
53904;DHT22;39812;52.430;16.936;2023-01-30T06:02:08;-0.30;99.90
53904;DHT22;39812;52.430;16.936;2023-01-30T06:04:33;-0.30;99.90
53904;DHT22;39812;52.430;16.936;2023-01-30T06:07:00;-0.20;99.90
53904;DHT22;39812;52.430;16.936;2023-01-30T06:09:25;-0.20;99.90
53904;DHT22;39812;52.430;16.936;2023-01-30T06:11:51;-0.20;99.90
53904;DHT22;39812;52.430;16.936;2023-01-30T06:14:17;-0.20;99.90
53904;DHT22;39812;52.430;16.936;2023-01-30T06:16:42;-0.10;99.90
53904;DHT22;39812;52.430;16.936;2023-01-30T06:19:08;-0.10;99.90
53904;DHT22;39812;52.430;16.936;2023-01-30T06:21:34;-0.10;99.90
53904;DHT22;39812;52.430;16.936;2023-01-30T06:23:59;0.00;99.90
53904;DHT22;39812;52.430;16.936;2023-01-30T06:26:25;0.00;99.90
53904;DHT22;39812;52.430;16.936;2023-01-30T06:28:51;0.00;99.90
53904;DHT22;39812;52.430;16.936;2023-01-30T06:31:16;0.00;99.90
53904;DHT22;39812;52.430;16.936;2023-01-30T06:33:42;0.10;99.90
53904;DHT22;39812;52.430;16.936;2023-01-30T06:36:09;0.10;99.90
53904;DHT22;39812;52.430;16.936;2023-01-30T06:38:34;0.10;99.90
53904;DHT22;39812;52.430;16.936;2023-01-30T06:41:00;0.20;99.90
53904;DHT22;39812;52.430;16.936;2023-01-30T06:43:26;0.20;99.90
53904;DHT22;39812;52.430;16.936;2023-01-30T06:45:51;0.20;99.90
53904;DHT22;39812;52.430;16.936;2023-01-30T06:48:17;0.20;99.90
53904;DHT22;39812;52.430;16.936;2023-01-30T06:50:45;0.20;99.90
53904;DHT22;39812;52.430;16.936;2023-01-30T06:53:12;0.30;99.90
53904;DHT22;39812;52.430;16.936;2023-01-30T06:55:37;0.30;99.90
53904;DHT22;39812;52.430;16.936;2023-01-30T06:58:08;0.30;99.90
53904;DHT22;39812;52.430;16.936;2023-01-30T07:00:35;0.30;99.90
53904;DHT22;39812;52.430;16.936;2023-01-30T07:03:01;0.30;99.90
53904;DHT22;39812;52.430;16.936;2023-01-30T07:05:27;0.30;99.90
53904;DHT22;39812;52.430;16.936;2023-01-30T07:07:53;0.20;99.90
53904;DHT22;39812;52.430;16.936;2023-01-30T07:10:19;0.20;99.90
53904;DHT22;39812;52.430;16.936;2023-01-30T07:12:46;0.30;99.90
53904;DHT22;39812;52.430;16.936;2023-01-30T07:15:12;0.20;99.90
53904;DHT22;39812;52.430;16.936;2023-01-30T07:17:39;0.20;99.90
53904;DHT22;39812;52.430;16.936;2023-01-30T07:20:07;0.20;99.90
53904;DHT22;39812;52.430;16.936;2023-01-30T07:22:33;0.20;99.90
53904;DHT22;39812;52.430;16.936;2023-01-30T07:24:59;0.20;99.90
53904;DHT22;39812;52.430;16.936;2023-01-30T07:27:24;0.20;99.90
53904;DHT22;39812;52.430;16.936;2023-01-30T07:29:50;0.30;99.90
53904;DHT22;39812;52.430;16.936;2023-01-30T07:32:18;0.30;99.90
53904;DHT22;39812;52.430;16.936;2023-01-30T07:34:47;0.30;99.90
53904;DHT22;39812;52.430;16.936;2023-01-30T07:37:13;0.40;99.90
53904;DHT22;39812;52.430;16.936;2023-01-30T07:39:39;0.40;99.90
53904;DHT22;39812;52.430;16.936;2023-01-30T07:42:05;0.50;99.90
53904;DHT22;39812;52.430;16.936;2023-01-30T07:44:31;0.50;99.90
53904;DHT22;39812;52.430;16.936;2023-01-30T07:46:58;0.50;99.90
53904;DHT22;39812;52.430;16.936;2023-01-30T07:49:24;0.60;99.90
53904;DHT22;39812;52.430;16.936;2023-01-30T07:51:50;0.60;99.90
53904;DHT22;39812;52.430;16.936;2023-01-30T07:54:16;0.60;99.90
53904;DHT22;39812;52.430;16.936;2023-01-30T07:56:42;0.60;99.90
53904;DHT22;39812;52.430;16.936;2023-01-30T07:59:10;0.70;99.90
53904;DHT22;39812;52.430;16.936;2023-01-30T08:01:36;0.70;99.90
53904;DHT22;39812;52.430;16.936;2023-01-30T08:04:01;0.70;99.90
53904;DHT22;39812;52.430;16.936;2023-01-30T08:06:27;0.70;99.90
53904;DHT22;39812;52.430;16.936;2023-01-30T08:08:53;0.80;99.90
53904;DHT22;39812;52.430;16.936;2023-01-30T08:11:18;0.70;99.90
53904;DHT22;39812;52.430;16.936;2023-01-30T08:13:44;0.80;99.90
53904;DHT22;39812;52.430;16.936;2023-01-30T08:16:11;0.80;99.90
53904;DHT22;39812;52.430;16.936;2023-01-30T08:18:37;0.90;99.90
53904;DHT22;39812;52.430;16.936;2023-01-30T08:21:04;0.90;99.90
53904;DHT22;39812;52.430;16.936;2023-01-30T08:23:31;1.00;99.90
53904;DHT22;39812;52.430;16.936;2023-01-30T08:25:59;1.00;99.90
53904;DHT22;39812;52.430;16.936;2023-01-30T08:28:26;1.00;99.90
53904;DHT22;39812;52.430;16.936;2023-01-30T08:30:53;1.10;99.90
53904;DHT22;39812;52.430;16.936;2023-01-30T08:33:19;1.10;99.90
53904;DHT22;39812;52.430;16.936;2023-01-30T08:35:45;1.20;99.90
53904;DHT22;39812;52.430;16.936;2023-01-30T08:38:11;1.20;99.90
53904;DHT22;39812;52.430;16.936;2023-01-30T08:40:37;1.20;99.90
53904;DHT22;39812;52.430;16.936;2023-01-30T08:43:03;1.30;99.90
53904;DHT22;39812;52.430;16.936;2023-01-30T08:45:30;1.30;99.90
53904;DHT22;39812;52.430;16.936;2023-01-30T08:48:03;1.30;99.90
53904;DHT22;39812;52.430;16.936;2023-01-30T08:50:29;1.30;99.90
53904;DHT22;39812;52.430;16.936;2023-01-30T08:52:55;1.30;99.90
53904;DHT22;39812;52.430;16.936;2023-01-30T08:55:21;1.30;99.90
53904;DHT22;39812;52.430;16.936;2023-01-30T08:57:48;1.20;99.90
53904;DHT22;39812;52.430;16.936;2023-01-30T09:00:14;1.30;99.90
53904;DHT22;39812;52.430;16.936;2023-01-30T09:02:40;1.30;99.90
53904;DHT22;39812;52.430;16.936;2023-01-30T09:05:07;1.40;99.90
53904;DHT22;39812;52.430;16.936;2023-01-30T09:07:34;1.40;99.90
53904;DHT22;39812;52.430;16.936;2023-01-30T09:09:59;1.40;99.90
53904;DHT22;39812;52.430;16.936;2023-01-30T09:12:26;1.50;99.90
53904;DHT22;39812;52.430;16.936;2023-01-30T09:14:52;1.40;99.90
53904;DHT22;39812;52.430;16.936;2023-01-30T09:17:20;1.50;99.90
53904;DHT22;39812;52.430;16.936;2023-01-30T09:19:45;1.50;99.90
53904;DHT22;39812;52.430;16.936;2023-01-30T09:22:11;1.50;99.90
53904;DHT22;39812;52.430;16.936;2023-01-30T09:24:37;1.50;99.90
53904;DHT22;39812;52.430;16.936;2023-01-30T09:27:02;1.50;99.90
53904;DHT22;39812;52.430;16.936;2023-01-30T09:29:28;1.50;99.90
53904;DHT22;39812;52.430;16.936;2023-01-30T09:31:54;1.50;99.90
53904;DHT22;39812;52.430;16.936;2023-01-30T09:34:22;1.50;99.90
53904;DHT22;39812;52.430;16.936;2023-01-30T09:36:52;1.60;99.90
53904;DHT22;39812;52.430;16.936;2023-01-30T09:39:18;1.60;99.90
53904;DHT22;39812;52.430;16.936;2023-01-30T09:42:07;1.60;99.90
53904;DHT22;39812;52.430;16.936;2023-01-30T09:52:45;1.80;99.90
53904;DHT22;39812;52.430;16.936;2023-01-30T09:57:41;1.80;99.90
53904;DHT22;39812;52.430;16.936;2023-01-30T10:02:51;1.80;99.90
53904;DHT22;39812;52.430;16.936;2023-01-30T10:05:17;1.80;99.90
53904;DHT22;39812;52.430;16.936;2023-01-30T10:07:50;1.90;99.90
53904;DHT22;39812;52.430;16.936;2023-01-30T10:10:47;1.90;99.90
53904;DHT22;39812;52.430;16.936;2023-01-30T10:13:34;2.00;99.90
53904;DHT22;39812;52.430;16.936;2023-01-30T10:16:20;2.00;99.90
53904;DHT22;39812;52.430;16.936;2023-01-30T10:18:59;2.00;99.90
53904;DHT22;39812;52.430;16.936;2023-01-30T10:27:15;2.00;99.90
53904;DHT22;39812;52.430;16.936;2023-01-30T10:29:45;2.20;99.90
53904;DHT22;39812;52.430;16.936;2023-01-30T10:32:16;2.20;99.90
53904;DHT22;39812;52.430;16.936;2023-01-30T10:34:47;2.20;99.90
53904;DHT22;39812;52.430;16.936;2023-01-30T10:40:04;2.20;99.90
53904;DHT22;39812;52.430;16.936;2023-01-30T10:42:51;2.20;99.90
53904;DHT22;39812;52.430;16.936;2023-01-30T10:45:28;2.10;99.90
53904;DHT22;39812;52.430;16.936;2023-01-30T10:50:43;2.10;99.90
53904;DHT22;39812;52.430;16.936;2023-01-30T10:53:20;2.10;99.90
53904;DHT22;39812;52.430;16.936;2023-01-30T10:55:51;2.20;99.90
53904;DHT22;39812;52.430;16.936;2023-01-30T10:58:26;2.30;99.90
53904;DHT22;39812;52.430;16.936;2023-01-30T11:06:25;2.50;99.90
53904;DHT22;39812;52.430;16.936;2023-01-30T11:08:53;2.50;99.90
53904;DHT22;39812;52.430;16.936;2023-01-30T11:11:45;2.60;99.90
53904;DHT22;39812;52.430;16.936;2023-01-30T11:14:12;2.60;99.90
53904;DHT22;39812;52.430;16.936;2023-01-30T11:16:50;2.70;99.90
53904;DHT22;39812;52.430;16.936;2023-01-30T11:19:32;2.80;99.90
53904;DHT22;39812;52.430;16.936;2023-01-30T11:22:03;2.90;99.90
53904;DHT22;39812;52.430;16.936;2023-01-30T11:26:55;3.00;99.90
53904;DHT22;39812;52.430;16.936;2023-01-30T11:29:33;3.00;99.90
53904;DHT22;39812;52.430;16.936;2023-01-30T11:32:05;3.10;99.90
53904;DHT22;39812;52.430;16.936;2023-01-30T11:34:31;3.10;99.90
53904;DHT22;39812;52.430;16.936;2023-01-30T11:37:26;3.20;99.90
53904;DHT22;39812;52.430;16.936;2023-01-30T11:39:55;3.10;99.90
53904;DHT22;39812;52.430;16.936;2023-01-30T11:42:28;3.20;99.90
53904;DHT22;39812;52.430;16.936;2023-01-30T11:44:57;3.20;99.90
53904;DHT22;39812;52.430;16.936;2023-01-30T11:47:25;3.30;99.90
53904;DHT22;39812;52.430;16.936;2023-01-30T11:49:54;3.20;99.90
53904;DHT22;39812;52.430;16.936;2023-01-30T11:52:27;3.30;99.90
53904;DHT22;39812;52.430;16.936;2023-01-30T11:54:59;3.30;99.90
53904;DHT22;39812;52.430;16.936;2023-01-30T11:58:11;3.30;99.90
53904;DHT22;39812;52.430;16.936;2023-01-30T12:00:46;3.30;99.90
53904;DHT22;39812;52.430;16.936;2023-01-30T12:03:16;3.30;99.90
53904;DHT22;39812;52.430;16.936;2023-01-30T12:05:45;3.30;99.90
53904;DHT22;39812;52.430;16.936;2023-01-30T12:10:40;3.30;99.90
53904;DHT22;39812;52.430;16.936;2023-01-30T12:16:00;3.30;99.90
53904;DHT22;39812;52.430;16.936;2023-01-30T12:18:33;3.30;99.90
53904;DHT22;39812;52.430;16.936;2023-01-30T12:21:08;3.40;99.90
53904;DHT22;39812;52.430;16.936;2023-01-30T12:26:56;3.80;99.90
53904;DHT22;39812;52.430;16.936;2023-01-30T12:29:34;3.80;99.90
53904;DHT22;39812;52.430;16.936;2023-01-30T12:32:14;3.90;99.90
53904;DHT22;39812;52.430;16.936;2023-01-30T12:34:41;3.70;99.90
53904;DHT22;39812;52.430;16.936;2023-01-30T12:37:35;3.80;99.90
53904;DHT22;39812;52.430;16.936;2023-01-30T12:48:30;5.50;99.90
53904;DHT22;39812;52.430;16.936;2023-01-30T13:05:41;4.60;99.90
53904;DHT22;39812;52.430;16.936;2023-01-30T13:08:32;4.60;99.90
53904;DHT22;39812;52.430;16.936;2023-01-30T13:13:38;4.80;99.90
53904;DHT22;39812;52.430;16.936;2023-01-30T13:16:29;5.90;99.90
53904;DHT22;39812;52.430;16.936;2023-01-30T13:19:10;6.50;99.90
53904;DHT22;39812;52.430;16.936;2023-01-30T13:21:55;6.80;99.90
53904;DHT22;39812;52.430;16.936;2023-01-30T13:24:39;5.80;99.90
53904;DHT22;39812;52.430;16.936;2023-01-30T13:27:12;5.00;99.90
53904;DHT22;39812;52.430;16.936;2023-01-30T13:29:40;4.70;99.90
53904;DHT22;39812;52.430;16.936;2023-01-30T13:32:34;4.70;99.90
53904;DHT22;39812;52.430;16.936;2023-01-30T13:35:00;4.60;99.90
53904;DHT22;39812;52.430;16.936;2023-01-30T13:37:29;4.50;99.90
53904;DHT22;39812;52.430;16.936;2023-01-30T13:42:51;4.40;99.90
53904;DHT22;39812;52.430;16.936;2023-01-30T13:45:22;4.80;99.90
53904;DHT22;39812;52.430;16.936;2023-01-30T13:50:40;4.50;99.90
53904;DHT22;39812;52.430;16.936;2023-01-30T13:56:33;4.50;99.90
53904;DHT22;39812;52.430;16.936;2023-01-30T14:09:40;3.90;99.90
53904;DHT22;39812;52.430;16.936;2023-01-30T14:12:19;3.80;99.90
53904;DHT22;39812;52.430;16.936;2023-01-30T14:17:24;3.30;99.90
53904;DHT22;39812;52.430;16.936;2023-01-30T14:22:32;3.10;99.90
53904;DHT22;39812;52.430;16.936;2023-01-30T14:30:45;3.00;99.90
53904;DHT22;39812;52.430;16.936;2023-01-30T14:38:17;2.90;99.90
53904;DHT22;39812;52.430;16.936;2023-01-30T14:46:10;2.90;99.90
53904;DHT22;39812;52.430;16.936;2023-01-30T14:53:55;3.00;99.90
53904;DHT22;39812;52.430;16.936;2023-01-30T14:56:51;3.00;99.90
53904;DHT22;39812;52.430;16.936;2023-01-30T14:59:33;3.00;99.90
53904;DHT22;39812;52.430;16.936;2023-01-30T15:07:40;2.90;99.90
53904;DHT22;39812;52.430;16.936;2023-01-30T15:18:36;3.00;99.90
53904;DHT22;39812;52.430;16.936;2023-01-30T15:26:49;3.00;99.90
53904;DHT22;39812;52.430;16.936;2023-01-30T15:32:22;3.00;99.90
53904;DHT22;39812;52.430;16.936;2023-01-30T15:37:39;3.10;99.90
53904;DHT22;39812;52.430;16.936;2023-01-30T15:40:32;3.00;99.90
53904;DHT22;39812;52.430;16.936;2023-01-30T15:51:53;2.80;99.90
53904;DHT22;39812;52.430;16.936;2023-01-30T15:54:21;2.70;99.90
53904;DHT22;39812;52.430;16.936;2023-01-30T15:56:48;2.60;99.90
53904;DHT22;39812;52.430;16.936;2023-01-30T15:59:35;2.70;99.90
53904;DHT22;39812;52.430;16.936;2023-01-30T16:02:22;2.80;99.90
53904;DHT22;39812;52.430;16.936;2023-01-30T16:04:48;2.80;99.90
53904;DHT22;39812;52.430;16.936;2023-01-30T16:07:27;2.60;99.90
53904;DHT22;39812;52.430;16.936;2023-01-30T16:09:56;2.60;99.90
53904;DHT22;39812;52.430;16.936;2023-01-30T16:12:28;2.50;99.90
53904;DHT22;39812;52.430;16.936;2023-01-30T16:14:54;2.50;99.90
53904;DHT22;39812;52.430;16.936;2023-01-30T16:17:30;2.50;99.90
53904;DHT22;39812;52.430;16.936;2023-01-30T16:19:58;2.50;99.90
53904;DHT22;39812;52.430;16.936;2023-01-30T16:22:27;2.50;99.90
53904;DHT22;39812;52.430;16.936;2023-01-30T16:24:56;2.50;99.90
53904;DHT22;39812;52.430;16.936;2023-01-30T16:27:29;2.50;99.90
53904;DHT22;39812;52.430;16.936;2023-01-30T16:29:59;2.50;99.90
53904;DHT22;39812;52.430;16.936;2023-01-30T16:32:30;2.50;99.90
53904;DHT22;39812;52.430;16.936;2023-01-30T16:37:49;2.60;99.90
53904;DHT22;39812;52.430;16.936;2023-01-30T16:40:21;2.50;99.90
53904;DHT22;39812;52.430;16.936;2023-01-30T16:43:23;2.50;99.90
53904;DHT22;39812;52.430;16.936;2023-01-30T16:50:45;2.40;99.90
53904;DHT22;39812;52.430;16.936;2023-01-30T16:53:16;2.40;99.90
53904;DHT22;39812;52.430;16.936;2023-01-30T16:55:59;2.40;99.90
53904;DHT22;39812;52.430;16.936;2023-01-30T16:58:29;2.50;99.90
53904;DHT22;39812;52.430;16.936;2023-01-30T17:00:58;2.50;99.90
53904;DHT22;39812;52.430;16.936;2023-01-30T17:03:28;2.40;99.90
53904;DHT22;39812;52.430;16.936;2023-01-30T17:05:57;2.40;99.90
53904;DHT22;39812;52.430;16.936;2023-01-30T17:11:50;2.40;99.90
53904;DHT22;39812;52.430;16.936;2023-01-30T17:16:58;2.30;99.90
53904;DHT22;39812;52.430;16.936;2023-01-30T17:19:25;2.40;99.90
53904;DHT22;39812;52.430;16.936;2023-01-30T17:21:51;2.50;99.90
53904;DHT22;39812;52.430;16.936;2023-01-30T17:24:20;2.50;99.90
53904;DHT22;39812;52.430;16.936;2023-01-30T17:26:58;2.40;99.90
53904;DHT22;39812;52.430;16.936;2023-01-30T17:29:29;2.40;99.90
53904;DHT22;39812;52.430;16.936;2023-01-30T17:31:56;2.30;99.90
53904;DHT22;39812;52.430;16.936;2023-01-30T17:34:22;2.30;99.90
53904;DHT22;39812;52.430;16.936;2023-01-30T17:36:49;2.20;99.90
53904;DHT22;39812;52.430;16.936;2023-01-30T17:39:17;2.30;99.90
53904;DHT22;39812;52.430;16.936;2023-01-30T17:41:44;2.30;99.90
53904;DHT22;39812;52.430;16.936;2023-01-30T17:44:11;2.10;99.90
53904;DHT22;39812;52.430;16.936;2023-01-30T17:46:48;2.20;99.90
53904;DHT22;39812;52.430;16.936;2023-01-30T17:49:22;2.30;99.90
53904;DHT22;39812;52.430;16.936;2023-01-30T17:51:51;2.30;99.90
53904;DHT22;39812;52.430;16.936;2023-01-30T17:54:18;2.30;99.90
53904;DHT22;39812;52.430;16.936;2023-01-30T17:57:16;2.40;99.90
53904;DHT22;39812;52.430;16.936;2023-01-30T17:59:42;2.30;99.90
53904;DHT22;39812;52.430;16.936;2023-01-30T18:02:10;2.30;99.90
53904;DHT22;39812;52.430;16.936;2023-01-30T18:04:36;2.40;99.90
53904;DHT22;39812;52.430;16.936;2023-01-30T18:07:06;2.30;99.90
53904;DHT22;39812;52.430;16.936;2023-01-30T18:09:35;2.30;99.90
53904;DHT22;39812;52.430;16.936;2023-01-30T18:12:01;2.40;99.90
53904;DHT22;39812;52.430;16.936;2023-01-30T18:14:27;2.40;99.90
53904;DHT22;39812;52.430;16.936;2023-01-30T18:16:53;2.40;99.90
53904;DHT22;39812;52.430;16.936;2023-01-30T18:19:25;2.50;99.90
53904;DHT22;39812;52.430;16.936;2023-01-30T18:21:51;2.50;99.90
53904;DHT22;39812;52.430;16.936;2023-01-30T18:24:17;2.50;99.90
53904;DHT22;39812;52.430;16.936;2023-01-30T18:26:44;2.60;99.90
53904;DHT22;39812;52.430;16.936;2023-01-30T18:29:10;2.60;99.90
53904;DHT22;39812;52.430;16.936;2023-01-30T18:31:37;2.60;99.90
53904;DHT22;39812;52.430;16.936;2023-01-30T18:34:02;2.60;99.90
53904;DHT22;39812;52.430;16.936;2023-01-30T18:36:28;2.70;99.90
53904;DHT22;39812;52.430;16.936;2023-01-30T18:38:54;2.70;99.90
53904;DHT22;39812;52.430;16.936;2023-01-30T18:41:21;2.70;99.90
53904;DHT22;39812;52.430;16.936;2023-01-30T18:43:53;2.70;99.90
53904;DHT22;39812;52.430;16.936;2023-01-30T18:46:19;2.70;99.90
53904;DHT22;39812;52.430;16.936;2023-01-30T18:48:45;2.70;99.90
53904;DHT22;39812;52.430;16.936;2023-01-30T18:51:12;2.70;99.90
53904;DHT22;39812;52.430;16.936;2023-01-30T18:53:40;2.70;99.90
53904;DHT22;39812;52.430;16.936;2023-01-30T18:56:11;2.70;99.90